Time;durP1;ratioP1;P1;durP2;ratioP2;P2;SDS_P1;SDS_P2;PMS_P1;PMS_P2;Temp;Humidity;BMP_temperature;BMP_pressure;BME280_temperature;BME280_humidity;BME280_pressure;Samples;Min_cycle;Max_cycle;Signal;HPM_P1;HPM_P2
2023/04/30 00:02:10;;;;;;;7.97;4.47;;;8.50;99.90;;;;;;5030283;28;20080;-49
2023/04/30 00:04:36;;;;;;;9.73;4.60;;;8.40;99.90;;;;;;5029959;28;20037;-51
2023/04/30 00:07:02;;;;;;;9.43;4.47;;;8.50;99.90;;;;;;5030190;28;20502;-48
2023/04/30 00:09:28;;;;;;;9.87;5.10;;;8.50;99.90;;;;;;5030167;28;20036;-51
2023/04/30 00:11:53;;;;;;;9.47;4.70;;;8.50;99.90;;;;;;5030195;28;20026;-49
2023/04/30 00:14:19;;;;;;;9.03;4.53;;;8.50;99.90;;;;;;5030024;28;20029;-51
2023/04/30 00:16:45;;;;;;;8.33;4.57;;;8.40;99.90;;;;;;5029987;28;20125;-50
2023/04/30 00:19:11;;;;;;;7.77;4.50;;;8.40;99.90;;;;;;5030267;28;20112;-52
2023/04/30 00:21:37;;;;;;;8.50;4.67;;;8.40;99.90;;;;;;5030420;28;20034;-51
2023/04/30 00:24:02;;;;;;;9.60;4.87;;;8.40;99.90;;;;;;5033931;28;20380;-51
2023/04/30 00:26:28;;;;;;;9.77;5.23;;;8.40;99.90;;;;;;5033809;28;20026;-53
2023/04/30 00:28:54;;;;;;;10.23;4.67;;;8.40;99.90;;;;;;5016238;28;20397;-48
2023/04/30 00:31:20;;;;;;;7.87;4.53;;;8.40;99.90;;;;;;5034230;28;20025;-49
2023/04/30 00:33:45;;;;;;;7.90;4.80;;;8.40;99.90;;;;;;5034122;28;20128;-49
2023/04/30 00:36:11;;;;;;;11.20;5.10;;;8.30;99.90;;;;;;5033961;28;20025;-49
2023/04/30 00:38:37;;;;;;;10.53;4.67;;;8.30;99.90;;;;;;5033608;28;20052;-51
2023/04/30 00:41:03;;;;;;;8.50;4.30;;;8.30;99.90;;;;;;5016086;28;20043;-51
2023/04/30 00:43:29;;;;;;;10.33;4.90;;;8.30;99.90;;;;;;5015705;28;20094;-49
2023/04/30 00:45:54;;;;;;;8.13;4.37;;;8.30;99.90;;;;;;5033693;28;20511;-50
2023/04/30 00:48:22;;;;;;;9.97;4.73;;;8.30;99.90;;;;;;5033863;28;20021;-50
2023/04/30 00:50:48;;;;;;;12.90;4.83;;;8.30;99.90;;;;;;5015916;28;20029;-48
2023/04/30 00:53:13;;;;;;;11.43;4.83;;;8.30;99.90;;;;;;5015798;28;20037;-53
2023/04/30 00:55:40;;;;;;;9.00;4.63;;;8.20;99.90;;;;;;5033450;28;20037;-49
2023/04/30 00:58:07;;;;;;;8.73;4.80;;;8.20;99.90;;;;;;5015523;28;20601;-50
2023/04/30 01:00:33;;;;;;;9.17;4.67;;;8.20;99.90;;;;;;5033463;28;20044;-49
2023/04/30 01:02:59;;;;;;;9.70;4.83;;;8.20;99.90;;;;;;5033329;28;20113;-49
2023/04/30 01:05:25;;;;;;;8.47;4.60;;;8.20;99.90;;;;;;5033215;28;20028;-48
2023/04/30 01:07:53;;;;;;;9.40;4.67;;;8.20;99.90;;;;;;5015355;28;20075;-52
2023/04/30 01:10:21;;;;;;;8.67;4.53;;;8.20;99.90;;;;;;5033253;28;20033;-51
2023/04/30 01:13:10;;;;;;;9.27;4.83;;;8.20;99.90;;;;;;5033096;28;20047;-50
2023/04/30 01:15:46;;;;;;;8.20;4.72;;;8.10;99.90;;;;;;5033010;28;20555;-53
2023/04/30 01:18:24;;;;;;;8.13;4.57;;;8.10;99.90;;;;;;5033016;28;20026;-51
2023/04/30 01:21:01;;;;;;;8.67;4.20;;;8.00;99.90;;;;;;5015278;28;20467;-49
2023/04/30 01:23:35;;;;;;;10.27;4.57;;;8.00;99.90;;;;;;5032820;28;20029;-50
2023/04/30 01:26:26;;;;;;;10.37;4.77;;;8.00;99.90;;;;;;5015155;28;20033;-49
2023/04/30 01:28:53;;;;;;;9.47;5.00;;;8.00;99.90;;;;;;5014958;28;20443;-50
2023/04/30 01:31:19;;;;;;;11.27;4.93;;;8.00;99.90;;;;;;5033044;28;20030;-50
2023/04/30 01:33:45;;;;;;;9.73;4.83;;;8.00;99.90;;;;;;5014147;28;20030;-51
2023/04/30 01:36:53;;;;;;;10.13;5.40;;;7.90;99.90;;;;;;5014906;28;20043;-48
2023/04/30 01:39:40;;;;;;;9.03;4.50;;;7.90;99.90;;;;;;5032647;28;20111;-50
2023/04/30 01:42:27;;;;;;;11.43;5.47;;;7.90;99.90;;;;;;5014898;28;20033;-48
2023/04/30 01:47:51;;;;;;;9.20;4.97;;;7.80;99.90;;;;;;4991490;28;20053;-47
2023/04/30 01:50:42;;;;;;;9.57;5.05;;;7.70;99.90;;;;;;4993168;28;20483;-47
2023/04/30 01:53:17;;;;;;;10.47;5.20;;;7.70;99.90;;;;;;4993320;28;20054;-48
2023/04/30 01:55:58;;;;;;;8.87;5.20;;;7.70;99.90;;;;;;4975402;28;20038;-47
2023/04/30 01:58:25;;;;;;;11.57;5.47;;;7.70;99.90;;;;;;4975430;28;20479;-46
2023/04/30 02:00:51;;;;;;;10.80;5.63;;;7.60;99.90;;;;;;4992969;28;20038;-47
2023/04/30 02:03:17;;;;;;;10.27;5.50;;;7.60;99.90;;;;;;4991669;28;20038;-47
2023/04/30 02:05:43;;;;;;;10.07;5.33;;;7.60;99.90;;;;;;4993092;28;20036;-47
2023/04/30 02:08:08;;;;;;;10.50;5.43;;;7.60;99.90;;;;;;4975280;28;20105;-47
2023/04/30 02:10:34;;;;;;;8.83;4.80;;;7.60;99.90;;;;;;4993003;28;20453;-46
2023/04/30 02:13:01;;;;;;;10.07;5.37;;;7.50;99.90;;;;;;4992782;28;20100;-46
2023/04/30 02:15:27;;;;;;;10.77;5.77;;;7.50;99.90;;;;;;4991281;28;20026;-46
2023/04/30 02:17:53;;;;;;;10.37;5.17;;;7.50;99.90;;;;;;4974977;28;20037;-49
2023/04/30 02:20:19;;;;;;;9.90;5.13;;;7.50;99.90;;;;;;4991418;28;20182;-46
2023/04/30 02:22:45;;;;;;;10.47;5.43;;;7.40;99.90;;;;;;4992409;28;20030;-47
2023/04/30 02:25:11;;;;;;;11.17;5.17;;;7.40;99.90;;;;;;4992401;28;20027;-47
2023/04/30 02:27:37;;;;;;;12.80;6.20;;;7.40;99.90;;;;;;4992591;28;20026;-47
2023/04/30 02:30:03;;;;;;;11.03;5.53;;;7.40;99.90;;;;;;4992479;28;20038;-47
2023/04/30 02:32:29;;;;;;;9.83;5.10;;;7.40;99.90;;;;;;4974952;28;20034;-46
2023/04/30 02:34:55;;;;;;;10.63;5.50;;;7.30;99.90;;;;;;4974630;28;20037;-49
2023/04/30 02:37:21;;;;;;;11.40;5.53;;;7.30;99.90;;;;;;4974570;28;20057;-52
2023/04/30 02:39:47;;;;;;;10.83;5.40;;;7.30;99.90;;;;;;4992195;28;20112;-47
2023/04/30 02:42:13;;;;;;;12.30;5.50;;;7.30;99.90;;;;;;4992263;28;20081;-47
2023/04/30 02:44:39;;;;;;;12.30;6.20;;;7.30;99.90;;;;;;4974505;28;20499;-47
2023/04/30 02:47:05;;;;;;;12.17;6.20;;;7.30;99.90;;;;;;4992046;28;20030;-51
2023/04/30 02:49:31;;;;;;;14.57;6.20;;;7.20;99.90;;;;;;4992219;28;20014;-48
2023/04/30 02:51:57;;;;;;;14.33;6.33;;;7.20;99.90;;;;;;4991976;28;20096;-47
2023/04/30 02:54:23;;;;;;;13.23;6.40;;;7.20;99.90;;;;;;4991850;28;20026;-50
2023/04/30 02:56:49;;;;;;;13.93;6.53;;;7.20;99.90;;;;;;4990395;28;20034;-47
2023/04/30 02:59:14;;;;;;;13.40;6.23;;;7.20;99.90;;;;;;4974592;28;20085;-49
2023/04/30 03:01:40;;;;;;;13.27;6.67;;;7.20;99.90;;;;;;4990647;28;20117;-47
2023/04/30 03:04:06;;;;;;;11.37;5.97;;;7.10;99.90;;;;;;4991629;28;20475;-52
2023/04/30 03:06:32;;;;;;;14.10;7.27;;;7.10;99.90;;;;;;4991475;28;20030;-50
2023/04/30 03:08:58;;;;;;;14.00;6.40;;;7.10;99.90;;;;;;4974252;28;20038;-47
2023/04/30 03:11:24;;;;;;;12.23;6.37;;;7.10;99.90;;;;;;4990459;28;20030;-51
2023/04/30 03:13:52;;;;;;;11.53;6.30;;;7.10;99.90;;;;;;4974211;28;20403;-48
2023/04/30 03:16:19;;;;;;;13.77;7.07;;;7.00;99.90;;;;;;4991573;28;20085;-48
2023/04/30 03:18:47;;;;;;;11.63;6.80;;;7.10;99.90;;;;;;4990591;28;20035;-47
2023/04/30 03:21:13;;;;;;;11.50;6.20;;;7.00;99.90;;;;;;4974049;28;20161;-48
2023/04/30 03:23:39;;;;;;;15.57;7.20;;;7.00;99.90;;;;;;4991290;28;20061;-46
2023/04/30 03:26:05;;;;;;;14.73;6.87;;;7.00;99.90;;;;;;4991514;28;20046;-50
2023/04/30 03:28:31;;;;;;;12.80;6.63;;;7.00;99.90;;;;;;4973895;28;20030;-46
2023/04/30 03:30:58;;;;;;;12.40;6.37;;;7.00;99.90;;;;;;4991403;28;20495;-49
2023/04/30 03:33:23;;;;;;;12.77;6.47;;;6.90;99.90;;;;;;4991249;28;20446;-47
2023/04/30 03:35:50;;;;;;;14.50;6.57;;;6.90;99.90;;;;;;4991264;28;20113;-46
2023/04/30 03:38:16;;;;;;;12.07;6.67;;;6.90;99.90;;;;;;4989862;28;20045;-49
2023/04/30 03:40:42;;;;;;;13.13;6.60;;;6.80;99.90;;;;;;4991282;28;20487;-48
2023/04/30 03:43:08;;;;;;;12.70;6.47;;;6.80;99.90;;;;;;4990078;28;20034;-46
2023/04/30 03:45:33;;;;;;;13.90;6.83;;;6.80;99.90;;;;;;4991130;28;20419;-47
2023/04/30 03:47:59;;;;;;;14.23;6.47;;;6.80;99.90;;;;;;4991049;28;20369;-46
2023/04/30 03:50:25;;;;;;;15.07;6.80;;;6.80;99.90;;;;;;4973627;28;20022;-51
2023/04/30 03:52:51;;;;;;;13.53;6.90;;;6.70;99.90;;;;;;4989886;28;20031;-46
2023/04/30 03:55:17;;;;;;;12.83;6.47;;;6.70;99.90;;;;;;4973473;28;20026;-46
2023/04/30 03:57:43;;;;;;;13.03;6.53;;;6.70;99.90;;;;;;4973051;28;20065;-48
2023/04/30 04:00:10;;;;;;;11.83;6.47;;;6.70;99.90;;;;;;4973611;28;20033;-46
2023/04/30 04:02:41;;;;;;;11.67;5.93;;;6.70;99.90;;;;;;4973683;28;20455;-46
2023/04/30 04:05:09;;;;;;;14.33;7.17;;;6.70;99.90;;;;;;4973242;28;20499;-46
2023/04/30 04:07:35;;;;;;;15.00;7.00;;;6.70;99.90;;;;;;4989891;28;20034;-52
2023/04/30 04:10:01;;;;;;;13.17;6.37;;;6.60;99.90;;;;;;4989759;28;20054;-49
2023/04/30 04:12:28;;;;;;;13.33;6.57;;;6.60;99.90;;;;;;4973680;28;20034;-49
2023/04/30 04:14:54;;;;;;;13.50;6.80;;;6.70;99.90;;;;;;4989516;28;20299;-51
2023/04/30 04:17:20;;;;;;;14.20;6.50;;;6.60;99.90;;;;;;4973325;28;20069;-50
2023/04/30 04:19:46;;;;;;;11.97;6.53;;;6.60;99.90;;;;;;4990996;28;20427;-52
2023/04/30 04:22:13;;;;;;;14.70;6.60;;;6.70;99.90;;;;;;4989714;28;20030;-53
2023/04/30 04:24:38;;;;;;;12.40;5.93;;;6.70;99.90;;;;;;4990800;28;20044;-51
2023/04/30 04:27:05;;;;;;;12.53;5.93;;;6.70;99.90;;;;;;4989381;28;20030;-51
2023/04/30 04:29:32;;;;;;;10.73;6.40;;;6.70;99.90;;;;;;4989587;28;20098;-48
2023/04/30 04:31:59;;;;;;;14.20;6.77;;;6.80;99.90;;;;;;4989473;28;20105;-48
2023/04/30 04:34:25;;;;;;;14.30;6.60;;;6.70;99.90;;;;;;4973309;28;20030;-50
2023/04/30 04:36:51;;;;;;;12.57;5.80;;;6.70;99.90;;;;;;4972995;28;20053;-48
2023/04/30 04:39:18;;;;;;;15.80;7.30;;;6.70;99.90;;;;;;4973331;28;20058;-51
2023/04/30 04:41:44;;;;;;;12.03;6.33;;;6.70;99.90;;;;;;4990903;28;20038;-47
2023/04/30 04:44:10;;;;;;;14.10;6.70;;;6.70;99.90;;;;;;4990548;28;20053;-47
2023/04/30 04:46:41;;;;;;;12.93;6.40;;;6.80;99.90;;;;;;4989055;28;20026;-52
2023/04/30 04:49:06;;;;;;;11.73;5.93;;;6.80;99.90;;;;;;4973135;28;20030;-51
2023/04/30 04:51:32;;;;;;;13.57;6.67;;;6.80;99.90;;;;;;4973215;28;20525;-49
2023/04/30 04:53:58;;;;;;;12.30;6.30;;;6.80;99.90;;;;;;4989207;28;20038;-47
2023/04/30 04:56:24;;;;;;;13.37;6.50;;;6.90;99.90;;;;;;4972902;28;20034;-52
2023/04/30 04:58:50;;;;;;;14.77;6.53;;;6.90;99.90;;;;;;4989267;28;20042;-50
2023/04/30 05:01:16;;;;;;;12.17;6.43;;;6.90;99.90;;;;;;4990700;28;20026;-48
2023/04/30 05:03:44;;;;;;;12.55;5.60;;;6.90;99.90;;;;;;4989117;28;20031;-53
2023/04/30 05:06:10;;;;;;;12.00;6.30;;;7.00;99.90;;;;;;4972880;28;20037;-48
2023/04/30 05:08:37;;;;;;;12.50;6.20;;;7.00;99.90;;;;;;4990494;28;20096;-49
2023/04/30 05:11:03;;;;;;;10.77;5.63;;;7.10;99.90;;;;;;4994046;28;20487;-47
2023/04/30 05:13:29;;;;;;;12.97;6.40;;;7.10;99.90;;;;;;4993606;28;20088;-48
2023/04/30 05:15:54;;;;;;;11.33;6.07;;;7.20;99.90;;;;;;4993868;28;20039;-50
2023/04/30 05:18:20;;;;;;;11.83;6.20;;;7.20;99.90;;;;;;4993668;28;20037;-48
2023/04/30 05:20:46;;;;;;;11.13;6.50;;;7.20;99.90;;;;;;4993827;28;20037;-53
2023/04/30 05:23:11;;;;;;;11.83;5.67;;;7.30;99.90;;;;;;4993823;28;20073;-48
2023/04/30 05:25:37;;;;;;;11.07;6.27;;;7.40;99.90;;;;;;4993586;28;20387;-47
2023/04/30 05:28:04;;;;;;;11.10;5.87;;;7.50;99.90;;;;;;4993461;28;20502;-48
2023/04/30 05:30:30;;;;;;;13.10;6.07;;;7.60;99.90;;;;;;4993520;28;20539;-47
2023/04/30 05:32:56;;;;;;;11.47;6.10;;;7.70;99.90;;;;;;4993703;28;20118;-51
2023/04/30 05:35:22;;;;;;;12.67;6.23;;;7.90;99.90;;;;;;4993386;28;20427;-45
2023/04/30 05:37:48;;;;;;;11.83;5.80;;;8.10;99.90;;;;;;4993342;28;20027;-47
2023/04/30 05:40:14;;;;;;;12.57;6.30;;;8.30;99.90;;;;;;4993408;28;20133;-50
2023/04/30 05:42:42;;;;;;;10.17;5.63;;;8.40;99.90;;;;;;4993322;28;20065;-48
2023/04/30 05:45:09;;;;;;;12.07;5.20;;;8.50;99.90;;;;;;4992975;28;20042;-49
2023/04/30 05:47:35;;;;;;;11.37;5.53;;;8.60;99.90;;;;;;4993437;28;20407;-48
2023/04/30 05:50:01;;;;;;;9.10;5.47;;;8.80;99.90;;;;;;4993294;28;20109;-50
2023/04/30 05:52:26;;;;;;;10.43;5.57;;;8.90;99.90;;;;;;4993203;28;20034;-48
2023/04/30 05:54:52;;;;;;;12.80;6.17;;;8.90;99.90;;;;;;4993032;28;20057;-52
2023/04/30 05:57:19;;;;;;;9.70;5.30;;;8.90;99.90;;;;;;4992865;28;20113;-46
2023/04/30 05:59:44;;;;;;;9.93;5.83;;;8.90;99.90;;;;;;4993111;28;20037;-52
2023/04/30 06:02:10;;;;;;;10.90;5.70;;;9.00;99.90;;;;;;4993206;28;20423;-50
2023/04/30 06:04:36;;;;;;;9.10;5.50;;;9.10;99.90;;;;;;4992816;28;20117;-49
2023/04/30 06:07:02;;;;;;;11.23;6.20;;;9.30;99.90;;;;;;4992779;28;20490;-51
2023/04/30 06:09:27;;;;;;;9.37;5.23;;;9.60;99.90;;;;;;4992942;28;20030;-49
2023/04/30 06:11:54;;;;;;;9.63;4.93;;;9.90;99.90;;;;;;4992747;28;20076;-49
2023/04/30 06:14:21;;;;;;;9.67;5.57;;;10.20;99.90;;;;;;4992666;28;20034;-49
2023/04/30 06:16:47;;;;;;;10.40;5.50;;;10.10;99.90;;;;;;4992517;28;20042;-49
2023/04/30 06:19:13;;;;;;;9.60;5.63;;;10.30;99.90;;;;;;4992688;28;20041;-53
2023/04/30 06:21:39;;;;;;;9.03;5.00;;;10.30;99.90;;;;;;4992541;28;20038;-47
2023/04/30 06:24:05;;;;;;;10.13;4.67;;;10.40;99.90;;;;;;4991623;28;20030;-48
2023/04/30 06:26:31;;;;;;;11.20;5.07;;;10.50;99.90;;;;;;4992431;28;20053;-51
2023/04/30 06:28:57;;;;;;;10.10;5.43;;;10.60;99.90;;;;;;4992962;28;20390;-50
2023/04/30 06:31:23;;;;;;;12.70;5.80;;;10.80;99.90;;;;;;4992797;28;20022;-52
2023/04/30 06:33:49;;;;;;;8.33;4.77;;;10.90;99.90;;;;;;4992326;28;20034;-50
2023/04/30 06:36:15;;;;;;;9.07;5.40;;;11.10;99.90;;;;;;4992390;28;20026;-47
2023/04/30 06:38:41;;;;;;;8.70;4.70;;;11.20;99.90;;;;;;4992209;28;20045;-52
2023/04/30 06:41:07;;;;;;;9.90;4.90;;;11.20;99.90;;;;;;4992328;28;20058;-50
2023/04/30 06:43:33;;;;;;;9.17;5.33;;;11.30;99.90;;;;;;4992376;28;20077;-51
2023/04/30 06:45:59;;;;;;;9.70;5.20;;;11.30;99.90;;;;;;4992186;28;20173;-49
2023/04/30 06:48:25;;;;;;;9.07;5.00;;;11.30;99.90;;;;;;4991944;28;20030;-48
2023/04/30 06:50:51;;;;;;;8.87;4.70;;;11.30;99.90;;;;;;4992135;28;20029;-48
2023/04/30 06:53:16;;;;;;;9.97;4.87;;;11.40;99.90;;;;;;4992255;28;20515;-52
2023/04/30 06:55:44;;;;;;;8.75;4.50;;;11.60;99.90;;;;;;4991799;28;20548;-49
2023/04/30 06:58:10;;;;;;;10.82;4.75;;;12.00;99.90;;;;;;4992484;28;20038;-48
2023/04/30 07:00:35;;;;;;;8.85;4.53;;;12.40;99.90;;;;;;4992168;28;20484;-50
2023/04/30 07:03:03;;;;;;;8.77;4.97;;;12.70;99.90;;;;;;4992197;28;20030;-47
2023/04/30 07:05:30;;;;;;;8.93;4.95;;;12.90;99.90;;;;;;4992065;28;20022;-47
2023/04/30 07:08:00;;;;;;;8.82;5.32;;;13.10;99.90;;;;;;4992611;28;20073;-48
2023/04/30 07:10:26;;;;;;;9.02;4.20;;;13.10;99.90;;;;;;4992013;28;20422;-50
2023/04/30 07:12:52;;;;;;;9.10;5.15;;;13.10;99.90;;;;;;4992167;28;20049;-47
2023/04/30 07:15:18;;;;;;;9.00;4.57;;;13.00;99.90;;;;;;4991820;28;20026;-50
2023/04/30 07:17:44;;;;;;;8.32;5.28;;;13.00;99.90;;;;;;4991875;28;20032;-52
2023/04/30 07:20:13;;;;;;;9.73;5.47;;;13.00;99.90;;;;;;4991945;28;20113;-50
2023/04/30 07:22:39;;;;;;;8.20;4.75;;;13.00;99.90;;;;;;4991972;28;20022;-48
2023/04/30 07:25:06;;;;;;;6.97;3.95;;;13.20;99.90;;;;;;4991640;28;20041;-50
2023/04/30 07:27:31;;;;;;;8.05;4.45;;;13.70;99.90;;;;;;4991747;28;20113;-50
2023/04/30 07:29:57;;;;;;;9.38;4.53;;;14.10;99.90;;;;;;4991757;28;20117;-51
2023/04/30 07:32:25;;;;;;;8.25;5.00;;;14.30;99.90;;;;;;4991005;28;20030;-48
2023/04/30 07:34:52;;;;;;;7.28;4.30;;;14.50;99.90;;;;;;4991538;28;20130;-48
2023/04/30 07:37:18;;;;;;;9.88;5.00;;;14.30;99.90;;;;;;4991501;28;20128;-49
2023/04/30 07:39:44;;;;;;;7.00;4.10;;;14.10;99.90;;;;;;4991691;28;20042;-47
2023/04/30 07:42:09;;;;;;;8.25;4.20;;;14.10;99.90;;;;;;4991514;28;20034;-48
2023/04/30 07:44:35;;;;;;;8.77;4.47;;;14.20;99.90;;;;;;4991259;28;20050;-52
2023/04/30 07:47:01;;;;;;;9.43;4.82;;;14.20;99.90;;;;;;4991310;28;20386;-50
2023/04/30 07:49:27;;;;;;;7.30;4.07;;;14.40;99.90;;;;;;4990238;28;20543;-52
2023/04/30 07:51:53;;;;;;;6.80;4.45;;;14.50;99.90;;;;;;4991283;28;20023;-51
2023/04/30 07:54:18;;;;;;;6.72;4.07;;;14.50;99.90;;;;;;4991414;28;20443;-50
2023/04/30 07:56:44;;;;;;;7.22;4.20;;;14.70;99.90;;;;;;4991280;28;20035;-49
2023/04/30 07:59:10;;;;;;;8.65;4.57;;;14.80;99.90;;;;;;4991105;28;20030;-49
2023/04/30 08:01:35;;;;;;;7.90;4.78;;;14.90;99.90;;;;;;4991221;28;20036;-49
2023/04/30 08:04:01;;;;;;;8.82;4.47;;;15.00;99.90;;;;;;4991031;28;20054;-49
2023/04/30 08:06:27;;;;;;;8.15;4.53;;;15.10;99.90;;;;;;4990831;28;20027;-49
2023/04/30 08:08:53;;;;;;;7.30;4.40;;;15.30;99.90;;;;;;4991155;28;20037;-47
2023/04/30 08:11:19;;;;;;;7.85;4.38;;;15.30;99.90;;;;;;4991134;28;20030;-51
2023/04/30 08:13:45;;;;;;;8.05;4.93;;;15.40;99.90;;;;;;4990914;28;20034;-50
2023/04/30 08:16:11;;;;;;;8.98;4.45;;;15.30;99.90;;;;;;4991082;28;20041;-47
2023/04/30 08:18:43;;;;;;;6.38;3.80;;;15.40;99.90;;;;;;4990898;28;20038;-52
2023/04/30 08:21:10;;;;;;;7.93;4.30;;;15.20;99.90;;;;;;4990860;28;20395;-46
2023/04/30 08:23:36;;;;;;;7.22;4.32;;;14.90;99.90;;;;;;4991121;28;20035;-51
2023/04/30 08:26:02;;;;;;;8.52;4.68;;;14.80;99.90;;;;;;4991014;28;20035;-47
2023/04/30 08:28:27;;;;;;;8.85;4.63;;;14.70;99.90;;;;;;4990707;28;20061;-48
2023/04/30 08:30:54;;;;;;;7.75;4.45;;;14.60;99.90;;;;;;4990933;28;20104;-50
2023/04/30 08:33:19;;;;;;;8.13;4.43;;;14.50;99.90;;;;;;4990734;28;20041;-47
2023/04/30 08:35:45;;;;;;;8.52;4.82;;;14.50;99.90;;;;;;4990736;28;20295;-49
2023/04/30 08:38:11;;;;;;;7.38;4.28;;;14.50;99.90;;;;;;4990813;28;20026;-49
2023/04/30 08:40:38;;;;;;;8.82;4.25;;;14.60;99.90;;;;;;4990899;28;20038;-51
2023/04/30 08:43:06;;;;;;;8.52;4.28;;;14.80;99.90;;;;;;4991589;28;20031;-51
2023/04/30 08:45:38;;;;;;;7.28;3.95;;;14.90;99.90;;;;;;4994224;28;20246;-48
2023/04/30 08:48:04;;;;;;;9.60;4.60;;;15.00;99.90;;;;;;4994292;28;20402;-50
2023/04/30 08:50:30;;;;;;;6.82;4.30;;;15.00;99.90;;;;;;4994315;28;20457;-52
2023/04/30 08:52:59;;;;;;;6.53;4.25;;;15.10;99.90;;;;;;4994474;28;20037;-51
2023/04/30 08:55:28;;;;;;;7.20;4.10;;;15.20;99.90;;;;;;4994276;28;20061;-50
2023/04/30 08:57:54;;;;;;;8.75;4.40;;;15.50;99.90;;;;;;4994152;28;20041;-51
2023/04/30 09:00:20;;;;;;;8.10;4.35;;;15.60;99.90;;;;;;4992912;28;20117;-48
2023/04/30 09:02:47;;;;;;;6.93;3.67;;;16.00;99.90;;;;;;4994122;28;20030;-51
2023/04/30 09:05:14;;;;;;;7.18;4.00;;;16.20;99.90;;;;;;4993794;28;20041;-47
2023/04/30 09:07:42;;;;;;;8.57;4.30;;;16.00;99.90;;;;;;4993884;28;20026;-46
2023/04/30 09:10:18;;;;;;;6.22;3.50;;;16.00;99.90;;;;;;4994179;28;20037;-51
2023/04/30 09:12:57;;;;;;;3.60;2.47;;;16.20;99.90;;;;;;4994105;28;20395;-46
2023/04/30 09:15:22;;;;;;;7.43;3.13;;;16.30;99.90;;;;;;4993709;28;20069;-47
2023/04/30 09:17:48;;;;;;;6.38;3.42;;;16.50;99.90;;;;;;4993940;28;20065;-48
2023/04/30 09:20:14;;;;;;;6.13;3.75;;;16.60;99.90;;;;;;4993838;28;20034;-50
2023/04/30 09:22:41;;;;;;;6.18;3.03;;;16.70;99.90;;;;;;4993995;28;20420;-49
2023/04/30 09:25:08;;;;;;;5.50;2.97;;;16.80;99.90;;;;;;4993902;28;20046;-47
2023/04/30 09:27:34;;;;;;;5.78;2.97;;;16.90;99.90;;;;;;4992274;28;20030;-49
2023/04/30 09:30:00;;;;;;;4.45;2.88;;;17.00;99.90;;;;;;4993647;28;20133;-49
2023/04/30 09:32:26;;;;;;;6.22;3.30;;;17.10;99.90;;;;;;4993677;28;20110;-49
2023/04/30 09:34:51;;;;;;;6.20;2.70;;;17.40;99.90;;;;;;4993522;28;20189;-49
2023/04/30 09:37:17;;;;;;;5.60;2.60;;;17.30;99.90;;;;;;4993298;28;20030;-46
2023/04/30 09:39:47;;;;;;;4.32;2.70;;;17.30;99.90;;;;;;4993469;28;20388;-48
2023/04/30 09:42:13;;;;;;;5.30;3.30;;;17.30;99.90;;;;;;4993422;28;20036;-47
2023/04/30 09:44:40;;;;;;;5.30;3.10;;;17.30;99.90;;;;;;4993085;28;20387;-47
2023/04/30 09:47:15;;;;;;;4.75;2.50;;;17.30;99.90;;;;;;4993079;28;20049;-48
2023/04/30 09:49:50;;;;;;;4.30;2.22;;;17.30;99.70;;;;;;4993271;28;20034;-49
2023/04/30 09:52:16;;;;;;;5.57;2.63;;;17.40;99.00;;;;;;4993439;28;20038;-48
2023/04/30 09:54:44;;;;;;;6.65;2.55;;;17.90;99.00;;;;;;4992475;28;20026;-46
2023/04/30 09:57:12;;;;;;;5.32;3.03;;;18.10;98.30;;;;;;4992941;28;20041;-47
2023/04/30 09:59:43;;;;;;;4.07;2.40;;;18.60;99.50;;;;;;4993094;28;20046;-49
2023/04/30 10:02:09;;;;;;;3.45;2.05;;;18.50;97.60;;;;;;4993177;28;20495;-49
2023/04/30 10:04:40;;;;;;;5.20;2.75;;;18.50;98.50;;;;;;4992805;28;20038;-46
2023/04/30 10:07:17;;;;;;;4.97;2.60;;;18.90;98.40;;;;;;4992782;28;20027;-48
2023/04/30 10:09:56;;;;;;;4.80;2.45;;;19.00;97.00;;;;;;4993039;28;20034;-48
2023/04/30 10:12:37;;;;;;;3.30;2.20;;;19.00;97.80;;;;;;4993033;28;20026;-47
2023/04/30 10:15:19;;;;;;;4.10;2.30;;;18.90;96.70;;;;;;4992723;28;20054;-51
2023/04/30 10:17:53;;;;;;;4.15;2.35;;;18.80;98.80;;;;;;4992611;28;20172;-47
2023/04/30 10:20:21;;;;;;;6.03;2.75;;;18.70;96.70;;;;;;4992756;28;20379;-47
2023/04/30 10:22:47;;;;;;;3.63;1.90;;;18.70;97.30;;;;;;4992817;28;20041;-46
2023/04/30 10:25:13;;;;;;;4.07;2.40;;;18.90;97.90;;;;;;4992402;28;20434;-50
2023/04/30 10:27:39;;;;;;;4.25;2.47;;;19.20;96.40;;;;;;4992786;28;20085;-48
2023/04/30 10:30:10;;;;;;;5.72;2.38;;;19.20;96.10;;;;;;4992562;28;20360;-47
2023/04/30 10:33:06;;;;;;;5.18;3.28;;;19.10;95.10;;;;;;4992505;28;20073;-51
2023/04/30 10:35:46;;;;;;;6.38;3.20;;;19.30;94.60;;;;;;4991887;28;20045;-51
2023/04/30 10:38:23;;;;;;;4.72;2.13;;;19.90;94.40;;;;;;4992737;28;20109;-49
2023/04/30 10:40:50;;;;;;;3.10;1.95;;;20.20;94.70;;;;;;4992260;28;20483;-53
2023/04/30 10:43:20;;;;;;;3.17;2.03;;;20.50;92.70;;;;;;4992271;28;20109;-52
2023/04/30 10:45:47;;;;;;;2.85;1.85;;;20.70;92.30;;;;;;4992141;28;20034;-51
2023/04/30 10:48:15;;;;;;;2.55;1.52;;;21.00;91.00;;;;;;4992027;28;20058;-53
2023/04/30 10:50:42;;;;;;;2.85;1.67;;;21.40;85.70;;;;;;4992218;28;20034;-48
2023/04/30 10:53:16;;;;;;;5.22;1.90;;;21.70;85.40;;;;;;4992072;28;20100;-48
2023/04/30 10:55:53;;;;;;;3.72;1.90;;;22.10;86.60;;;;;;4991750;28;20057;-49
2023/04/30 10:58:29;;;;;;;3.13;1.95;;;22.10;80.70;;;;;;4991933;28;20034;-50
2023/04/30 11:01:10;;;;;;;4.30;2.20;;;21.90;80.00;;;;;;4992050;28;20049;-51
2023/04/30 11:03:39;;;;;;;3.10;1.90;;;21.90;80.70;;;;;;4991557;28;20635;-49
2023/04/30 11:06:14;;;;;;;3.42;1.88;;;21.50;82.00;;;;;;4991447;28;20026;-47
2023/04/30 11:08:44;;;;;;;2.55;1.42;;;21.30;85.50;;;;;;4991583;28;20038;-50
2023/04/30 11:11:13;;;;;;;4.80;2.45;;;21.10;85.10;;;;;;4991835;28;20027;-49
2023/04/30 11:14:00;;;;;;;3.83;2.08;;;20.90;83.80;;;;;;4991508;28;20030;-48
2023/04/30 11:16:30;;;;;;;2.72;1.90;;;20.50;83.00;;;;;;4991568;28;20085;-50
2023/04/30 11:19:05;;;;;;;3.67;2.28;;;20.40;85.80;;;;;;4991627;28;20037;-49
2023/04/30 11:21:32;;;;;;;3.90;2.13;;;20.20;83.60;;;;;;4991678;28;20035;-49
2023/04/30 11:24:05;;;;;;;3.03;2.03;;;19.70;88.40;;;;;;4991335;28;20030;-49
2023/04/30 11:27:04;;;;;;;3.63;1.98;;;19.80;88.50;;;;;;4991220;28;20022;-52
2023/04/30 11:29:31;;;;;;;3.83;1.92;;;19.90;86.70;;;;;;4991447;28;20037;-49
2023/04/30 11:32:00;;;;;;;5.10;2.10;;;19.70;88.10;;;;;;4991586;28;20026;-50
2023/04/30 11:34:25;;;;;;;4.03;2.05;;;19.50;84.60;;;;;;4991299;28;20037;-50
2023/04/30 11:36:57;;;;;;;5.00;2.47;;;19.50;88.20;;;;;;4973544;28;20034;-50
2023/04/30 11:39:25;;;;;;;3.65;1.73;;;19.60;87.20;;;;;;4991326;28;20065;-52
2023/04/30 11:41:51;;;;;;;3.03;1.80;;;19.40;90.30;;;;;;4991435;28;20044;-51
2023/04/30 11:44:26;;;;;;;3.45;2.30;;;19.00;89.30;;;;;;4991348;28;20046;-49
2023/04/30 11:46:52;;;;;;;4.32;2.13;;;18.80;90.40;;;;;;4990884;28;20030;-51
2023/04/30 11:49:19;;;;;;;4.05;2.17;;;18.90;90.80;;;;;;4991248;28;20022;-48
2023/04/30 11:51:49;;;;;;;3.38;2.25;;;18.80;88.40;;;;;;4991615;28;20065;-49
2023/04/30 11:54:15;;;;;;;4.10;2.00;;;18.90;87.80;;;;;;4991208;28;20038;-48
2023/04/30 11:56:47;;;;;;;3.72;1.98;;;19.10;90.30;;;;;;4990820;28;20088;-48
2023/04/30 11:59:13;;;;;;;2.58;1.73;;;19.20;90.10;;;;;;4991207;28;20050;-49
2023/04/30 12:01:40;;;;;;;2.38;1.40;;;19.20;89.30;;;;;;4991180;28;20112;-51
2023/04/30 12:04:07;;;;;;;3.97;1.83;;;19.30;87.50;;;;;;4990805;28;20062;-49
2023/04/30 12:06:34;;;;;;;2.65;1.45;;;19.10;86.40;;;;;;4990765;28;20033;-46
2023/04/30 12:09:06;;;;;;;2.95;1.42;;;19.30;90.40;;;;;;4991102;28;20041;-46
2023/04/30 12:11:34;;;;;;;3.72;1.70;;;19.20;88.00;;;;;;4991060;28;20065;-46
2023/04/30 12:14:04;;;;;;;2.77;1.43;;;19.00;85.00;;;;;;4990930;28;20042;-48
2023/04/30 12:16:40;;;;;;;2.53;1.50;;;18.90;87.60;;;;;;4990692;28;20449;-48
2023/04/30 12:19:06;;;;;;;5.13;1.67;;;18.90;86.80;;;;;;4993669;28;20030;-50
2023/04/30 12:21:33;;;;;;;2.00;1.05;;;18.80;85.80;;;;;;4994887;28;20084;-49
2023/04/30 12:23:59;;;;;;;3.58;1.77;;;18.70;87.60;;;;;;4994988;28;20062;-49
2023/04/30 12:26:34;;;;;;;2.38;1.40;;;18.80;87.40;;;;;;4994570;28;20060;-47
2023/04/30 12:29:03;;;;;;;2.47;1.42;;;18.90;90.30;;;;;;4994754;28;20038;-47
2023/04/30 12:31:32;;;;;;;2.33;1.15;;;18.70;86.70;;;;;;4994801;28;20032;-47
2023/04/30 12:34:02;;;;;;;1.73;1.10;;;18.70;88.90;;;;;;4994660;28;20026;-49
2023/04/30 12:36:30;;;;;;;2.30;1.10;;;18.70;87.30;;;;;;4994427;28;20034;-45
2023/04/30 12:39:07;;;;;;;1.38;1.00;;;18.80;84.80;;;;;;4994571;28;20034;-46
2023/04/30 12:41:42;;;;;;;2.78;1.05;;;19.00;86.20;;;;;;4994382;28;20038;-48
2023/04/30 12:44:26;;;;;;;1.52;1.10;;;19.00;84.00;;;;;;4994522;28;20073;-46
2023/04/30 12:46:55;;;;;;;1.70;1.10;;;19.20;82.50;;;;;;4994071;28;20121;-47
2023/04/30 12:49:26;;;;;;;;;;;19.20;82.30;;;;;;4994960;28;20131;-50
2023/04/30 12:52:03;;;;;;;3.55;1.40;;;19.20;81.40;;;;;;4994819;28;19909;-47
2023/04/30 12:54:33;;;;;;;2.05;1.20;;;19.30;87.50;;;;;;4994238;28;20133;-47
2023/04/30 12:57:02;;;;;;;2.30;1.45;;;19.40;84.50;;;;;;4994301;28;20034;-49